Dickinson, ND

6:51 PM MDT on May 05, 2015 (GMT -0600)
Dickinson Municipal | | Change Station
CLOSE
Current Station
Airport
Location: Dickinson,
Elevation: 2592 ft
Nearby Weather Stations

Elev 2592 ft 46.80 °N, 102.80 °W | Updated 55 minutes ago

Partly Cloudy
Partly Cloudy
70 °F
Feels Like 70 °F
N
24
Wind Variable Wind from SSE
Gusts 31 mph

Today
High -- | Low -- °F
--% Chance of Precip.
Yesterday
High -- | Low -- °F
Precip. -- in
5:29 AM 8:06 PM
Waning Gibbous, 96% visible
Pressure 29.80 in
Visibility 10.0 miles
Clouds Scattered Clouds 4500 ft
Dew Point 49 °F
Humidity 47%
Rainfall 0.00 in
Snow Depth Not available.
UV 1 out of 12
Pollen 10.60 out of 12
Air Quality Not available.
Flu Activity Regional
METAR KDIK 052356Z AUTO 16021G27KT 10SM SCT045 21/09 A2980 RMK AO2 PK WND 16029/2341 SLP089 T02110094 10233 20200 56017

More Conditions Fewer Conditions

Pressure 29.80 in
Visibility 10.0 miles
Clouds Scattered Clouds 4500 ft
Dew Point 49 °F
Humidity 47%
Rainfall 0.00 in
Snow Depth Not available.
UV 1 out of 12
Pollen 10.60 out of 12
Air Quality Not available.
Flu Activity Regional
METAR KDIK 052356Z AUTO 16021G27KT 10SM SCT045 21/09 A2980 RMK AO2 PK WND 16029/2341 SLP089 T02110094 10233 20200 56017

More Conditions Fewer Conditions

10-Day Weather Forecast

Almanac

Astronomy

May. 05, 2015 Rise Set
Actual Time
Civil Twilight
Nautical Twilight
Astronomical Twilight
Moon
Length of Visible Light
Length of Day
Tomorrow will be .
, % of the Moon is Illuminated

Today's Extremes

State Highs State Lows

Community

WunderPhotos

Upload Photos

1,819,025 photos uploaded!

WunderBlogs® & News

Nearby

Air Quality

  Air Quality AQ Index Pollutant
Not available.

Snow Depth

Station Depth Elevation

Earthquake Activity

City Distance Mag. Time & Date
Minimum magnitude displayed is 2.5.

Coastal Water Temperatures

Place Temperature

Stations

Nearby Weather Stations

Station Location Temp. Windchill Dew Point Humidity Wind Precip. Elev Updated Type